createdAt,value
2022-08-11T00:02:19.043Z,21.21
2022-08-11T00:04:45.174Z,21.24
2022-08-11T00:07:11.304Z,21.08
2022-08-11T00:09:39.716Z,21.09
2022-08-11T00:12:06.218Z,21.10
2022-08-11T00:14:37.225Z,21.12
2022-08-11T00:17:04.054Z,21.10
2022-08-11T00:20:15.315Z,21.14
2022-08-11T00:22:16.315Z,21.16
2022-08-11T00:24:54.733Z,21.01
2022-08-11T00:27:22.302Z,20.91
2022-08-11T00:29:51.613Z,20.96
2022-08-11T00:32:18.058Z,21.03
2022-08-11T00:34:44.210Z,21.02
2022-08-11T00:37:10.351Z,21.00
2022-08-11T00:39:36.563Z,21.05
2022-08-11T00:42:02.838Z,21.09
2022-08-11T00:44:29.004Z,21.18
2022-08-11T00:46:55.182Z,21.26
2022-08-11T00:49:21.347Z,21.27
2022-08-11T00:52:03.822Z,21.20
2022-08-11T00:54:32.906Z,21.21
2022-08-11T00:56:59.451Z,21.33
2022-08-11T00:59:34.891Z,21.37
2022-08-11T01:02:01.819Z,21.32
2022-08-11T01:04:27.947Z,21.27
2022-08-11T01:06:54.081Z,21.17
2022-08-11T01:09:22.240Z,21.08
2022-08-11T01:11:55.413Z,20.94
2022-08-11T01:14:34.180Z,20.78
2022-08-11T01:17:00.778Z,20.65
2022-08-11T01:19:26.979Z,20.57
2022-08-11T01:21:53.118Z,20.65
2022-08-11T01:24:21.251Z,20.61
2022-08-11T01:26:47.410Z,20.36
2022-08-11T01:29:13.541Z,20.49
2022-08-11T01:31:39.681Z,20.51
2022-08-11T01:34:05.854Z,20.35
2022-08-11T01:36:31.998Z,20.27
2022-08-11T01:38:58.116Z,20.24
2022-08-11T01:41:24.273Z,20.25
2022-08-11T01:43:50.400Z,20.13
2022-08-11T01:46:16.540Z,20.03
2022-08-11T01:48:44.825Z,20.02
2022-08-11T01:51:16.758Z,20.16
2022-08-11T01:53:43.471Z,20.06
2022-08-11T01:56:09.608Z,20.00
2022-08-11T01:58:43.108Z,20.00
2022-08-11T02:01:10.567Z,19.98
2022-08-11T02:03:36.733Z,20.00
2022-08-11T02:06:02.873Z,19.85
2022-08-11T02:08:32.890Z,19.74
2022-08-11T02:10:59.796Z,19.74
2022-08-11T02:13:32.399Z,19.73
2022-08-11T02:16:01.894Z,19.55
2022-08-11T02:18:28.022Z,19.72
2022-08-11T02:20:54.225Z,19.79
2022-08-11T02:24:03.950Z,19.70
2022-08-11T02:26:07.538Z,19.86
2022-08-11T02:28:38.407Z,19.90
2022-08-11T02:31:06.324Z,19.85
2022-08-11T02:33:36.616Z,19.80
2022-08-11T02:36:02.891Z,19.75
2022-08-11T02:38:29.025Z,19.78
2022-08-11T02:40:55.184Z,19.75
2022-08-11T02:43:21.329Z,19.77
2022-08-11T02:45:47.467Z,19.81
2022-08-11T02:48:13.619Z,19.73
2022-08-11T02:50:39.754Z,19.63
2022-08-11T02:53:05.886Z,19.74
2022-08-11T02:55:44.433Z,19.64
2022-08-11T02:58:19.970Z,19.68
2022-08-11T03:00:53.131Z,19.62
2022-08-11T03:03:19.270Z,19.62
2022-08-11T03:05:45.419Z,19.55
2022-08-11T03:08:13.587Z,19.56
2022-08-11T03:10:39.731Z,19.59
2022-08-11T03:13:05.870Z,19.64
2022-08-11T03:15:32.033Z,19.69
2022-08-11T03:17:58.159Z,19.67
2022-08-11T03:20:24.285Z,19.55
2022-08-11T03:22:50.437Z,19.52
2022-08-11T03:25:16.567Z,19.47
2022-08-11T03:27:42.702Z,19.44
2022-08-11T03:30:08.865Z,19.35
2022-08-11T03:32:34.995Z,19.33
2022-08-11T03:35:01.118Z,19.22
2022-08-11T03:37:27.273Z,19.25
2022-08-11T03:39:56.380Z,19.27
2022-08-11T03:42:23.030Z,19.26
2022-08-11T03:44:49.180Z,19.35
2022-08-11T03:47:15.298Z,19.39
2022-08-11T03:49:41.435Z,19.28
2022-08-11T03:52:07.873Z,19.22
2022-08-11T03:54:34.001Z,19.24
2022-08-11T03:57:00.150Z,19.25
2022-08-11T03:59:26.319Z,19.30
2022-08-11T04:01:52.511Z,19.11
2022-08-11T04:04:18.676Z,19.31
2022-08-11T04:06:44.823Z,19.26
2022-08-11T04:09:10.959Z,19.15
2022-08-11T04:11:39.440Z,19.19
2022-08-11T04:14:05.650Z,19.12
2022-08-11T04:16:31.781Z,19.14
2022-08-11T04:18:57.922Z,19.12
2022-08-11T04:21:24.073Z,19.15
2022-08-11T04:24:35.360Z,19.11
2022-08-11T04:26:36.349Z,19.12
2022-08-11T04:29:09.511Z,19.13
2022-08-11T04:31:52.041Z,19.19
2022-08-11T04:34:18.862Z,19.15
2022-08-11T04:36:45.018Z,19.15
2022-08-11T04:39:11.225Z,19.08
2022-08-11T04:41:37.392Z,19.13
2022-08-11T04:44:06.169Z,19.03
2022-08-11T04:46:32.624Z,19.10
2022-08-11T04:48:58.970Z,19.13
2022-08-11T04:51:25.157Z,18.99
2022-08-11T04:53:52.327Z,19.04
2022-08-11T04:56:18.632Z,19.07
2022-08-11T04:58:44.789Z,19.09
2022-08-11T05:01:10.962Z,19.15
2022-08-11T05:03:37.105Z,19.24
2022-08-11T05:06:03.285Z,19.22
2022-08-11T05:08:29.440Z,19.34
2022-08-11T05:10:55.586Z,19.20
2022-08-11T05:13:21.766Z,19.27
2022-08-11T05:15:51.426Z,19.35
2022-08-11T05:18:17.815Z,19.40
2022-08-11T05:20:43.970Z,19.43
2022-08-11T05:23:10.095Z,19.28
2022-08-11T05:26:42.953Z,19.39
2022-08-11T05:28:22.374Z,19.37
2022-08-11T05:30:48.513Z,19.35
2022-08-11T05:33:14.645Z,19.36
2022-08-11T05:36:01.594Z,19.43
2022-08-11T05:38:26.967Z,19.34
2022-08-11T05:40:53.300Z,19.30
2022-08-11T05:43:25.934Z,19.37
2022-08-11T05:46:02.603Z,19.35
2022-08-11T05:48:31.068Z,19.42
2022-08-11T05:50:57.184Z,19.46
2022-08-11T05:53:23.454Z,19.57
2022-08-11T05:55:58.396Z,19.47
2022-08-11T05:58:29.790Z,19.42
2022-08-11T06:00:55.950Z,19.46
2022-08-11T06:03:22.147Z,19.50
2022-08-11T06:05:48.291Z,19.50
2022-08-11T06:08:17.915Z,19.57
2022-08-11T06:10:44.045Z,19.61
2022-08-11T06:13:10.185Z,19.65
2022-08-11T06:15:36.365Z,19.72
2022-08-11T06:18:02.506Z,19.67
2022-08-11T06:20:28.644Z,19.75
2022-08-11T06:22:54.794Z,19.81
2022-08-11T06:25:20.930Z,19.98
2022-08-11T06:27:47.097Z,20.03
2022-08-11T06:30:13.248Z,20.04
2022-08-11T06:32:39.641Z,20.10
2022-08-11T06:35:05.870Z,20.19
2022-08-11T06:37:36.254Z,20.33
2022-08-11T06:40:02.762Z,20.42
2022-08-11T06:42:28.988Z,20.53
2022-08-11T06:44:55.178Z,20.57
2022-08-11T06:47:21.317Z,20.58
2022-08-11T06:49:47.448Z,20.66
2022-08-11T06:52:34.870Z,20.76
2022-08-11T06:54:59.716Z,20.93
2022-08-11T06:57:29.906Z,21.04
2022-08-11T06:59:56.565Z,21.11
2022-08-11T07:02:22.702Z,21.18
2022-08-11T07:04:48.845Z,21.28
2022-08-11T07:07:14.995Z,21.33
2022-08-11T07:09:41.139Z,21.39
2022-08-11T07:12:07.540Z,21.43
2022-08-11T07:14:38.226Z,21.48
2022-08-11T07:17:04.682Z,21.54
2022-08-11T07:19:30.856Z,21.63
2022-08-11T07:22:01.280Z,21.73
2022-08-11T07:24:58.663Z,21.78
2022-08-11T07:27:15.934Z,21.89
2022-08-11T07:29:42.071Z,21.99
2022-08-11T07:32:08.224Z,22.09
2022-08-11T07:34:34.404Z,22.18
2022-08-11T07:37:00.537Z,22.27
2022-08-11T07:39:26.797Z,22.35
2022-08-11T07:41:53.603Z,22.47
2022-08-11T07:44:19.737Z,22.59
2022-08-11T07:46:45.877Z,22.68
2022-08-11T07:49:12.012Z,22.78
2022-08-11T07:51:38.153Z,22.80
2022-08-11T07:54:16.675Z,22.87
2022-08-11T07:56:55.283Z,22.94
2022-08-11T08:00:00.175Z,23.05
2022-08-11T08:02:16.226Z,23.16
2022-08-11T08:04:46.858Z,23.23
2022-08-11T08:07:13.553Z,23.33
2022-08-11T08:09:39.695Z,23.42
2022-08-11T08:12:05.840Z,23.51
2022-08-11T08:14:31.982Z,23.58
2022-08-11T08:17:00.041Z,23.64
2022-08-11T08:19:26.191Z,23.69
2022-08-11T08:21:52.321Z,23.78
2022-08-11T08:24:18.477Z,23.86
2022-08-11T08:26:51.456Z,23.96
2022-08-11T08:29:18.106Z,24.10
2022-08-11T08:31:44.244Z,24.16
2022-08-11T08:34:10.376Z,24.20
2022-08-11T08:36:36.500Z,24.30
2022-08-11T08:39:02.650Z,24.40
2022-08-11T08:41:28.788Z,24.50
2022-08-11T08:43:56.424Z,24.58
2022-08-11T08:46:24.029Z,24.66
2022-08-11T08:48:50.159Z,24.71
2022-08-11T08:51:19.360Z,24.74
2022-08-11T08:53:53.267Z,24.95
2022-08-11T08:56:22.671Z,25.01
2022-08-11T08:58:49.413Z,24.98
2022-08-11T09:01:17.939Z,25.04
2022-08-11T09:04:04.631Z,25.31
2022-08-11T09:06:30.229Z,25.33
2022-08-11T09:08:56.366Z,25.26
2022-08-11T09:11:22.488Z,25.31
2022-08-11T09:14:04.718Z,25.39
2022-08-11T09:16:33.625Z,25.46
2022-08-11T09:19:00.060Z,25.57
2022-08-11T09:21:46.298Z,25.64
2022-08-11T09:24:21.896Z,25.74
2022-08-11T09:26:51.898Z,25.80
2022-08-11T09:29:18.096Z,25.81
2022-08-11T09:31:44.230Z,25.93
2022-08-11T09:34:10.371Z,26.00
2022-08-11T09:36:36.542Z,26.20
2022-08-11T09:39:02.669Z,26.15
2022-08-11T09:41:28.790Z,26.16
2022-08-11T09:44:14.912Z,26.23
2022-08-11T09:46:41.034Z,26.25
2022-08-11T09:49:07.160Z,26.47
2022-08-11T09:51:33.314Z,26.54
2022-08-11T09:54:02.810Z,26.51
2022-08-11T09:56:30.035Z,26.46
2022-08-11T09:58:56.194Z,26.57
2022-08-11T10:01:22.353Z,26.64
2022-08-11T10:03:48.553Z,26.68
2022-08-11T10:06:14.752Z,26.78
2022-08-11T10:08:41.228Z,26.77
2022-08-11T10:11:07.381Z,26.80
2022-08-11T10:13:44.088Z,26.90
2022-08-11T10:16:20.665Z,26.96
2022-08-11T10:18:46.826Z,26.92
2022-08-11T10:21:12.959Z,26.97
2022-08-11T10:24:00.974Z,27.06
2022-08-11T10:26:26.683Z,27.08
2022-08-11T10:29:12.104Z,27.13
2022-08-11T10:31:56.963Z,27.22
2022-08-11T10:34:25.061Z,27.25
2022-08-11T10:36:54.523Z,27.36
2022-08-11T10:39:20.705Z,27.37
2022-08-11T10:42:03.461Z,27.37
2022-08-11T10:44:33.008Z,27.45
2022-08-11T10:46:59.168Z,27.60
2022-08-11T10:49:25.302Z,27.59
2022-08-11T10:51:53.691Z,27.63
2022-08-11T10:54:20.112Z,27.63
2022-08-11T10:56:46.247Z,27.65
2022-08-11T10:59:12.398Z,27.62
2022-08-11T11:01:38.581Z,27.55
2022-08-11T11:04:04.759Z,27.63
2022-08-11T11:06:31.416Z,27.59
2022-08-11T11:08:58.927Z,27.67
2022-08-11T11:11:27.878Z,27.79
2022-08-11T11:13:55.270Z,27.84
2022-08-11T11:16:23.466Z,27.99
2022-08-11T11:19:00.513Z,27.91
2022-08-11T11:21:27.472Z,27.93
2022-08-11T11:23:53.605Z,28.18
2022-08-11T11:26:27.118Z,28.22
2022-08-11T11:28:53.939Z,28.09
2022-08-11T11:31:21.011Z,28.23
2022-08-11T11:34:06.810Z,28.27
2022-08-11T11:36:33.332Z,28.22
2022-08-11T11:38:59.458Z,28.25
2022-08-11T11:41:25.607Z,28.43
2022-08-11T11:43:51.761Z,28.44
2022-08-11T11:46:17.886Z,28.40
2022-08-11T11:48:44.005Z,28.41
2022-08-11T11:51:10.177Z,28.35
2022-08-11T11:53:36.310Z,28.35
2022-08-11T11:56:02.458Z,28.40
2022-08-11T11:58:28.617Z,28.38
2022-08-11T12:00:56.731Z,28.33
2022-08-11T12:03:22.896Z,28.39
2022-08-11T12:05:49.099Z,28.53
2022-08-11T12:08:15.268Z,28.69
2022-08-11T12:10:41.392Z,28.74
2022-08-11T12:13:07.576Z,28.67
2022-08-11T12:16:31.802Z,28.62
2022-08-11T12:18:19.880Z,28.72
2022-08-11T12:20:46.030Z,28.48
2022-08-11T12:23:14.625Z,28.53
2022-08-11T12:25:41.464Z,28.48
2022-08-11T12:28:07.608Z,28.49
2022-08-11T12:30:33.845Z,28.56
2022-08-11T12:33:00.056Z,28.77
2022-08-11T12:35:26.217Z,28.86
2022-08-11T12:37:54.254Z,28.93
2022-08-11T12:40:49.793Z,28.97
2022-08-11T12:43:22.074Z,28.98
2022-08-11T12:45:50.385Z,28.82
2022-08-11T12:49:00.506Z,28.84
2022-08-11T12:51:02.669Z,28.75
2022-08-11T12:53:28.816Z,28.68
2022-08-11T12:56:03.618Z,28.75
2022-08-11T12:58:34.365Z,28.90
2022-08-11T13:01:00.595Z,29.05
2022-08-11T13:03:26.757Z,29.28
2022-08-11T13:05:52.962Z,29.31
2022-08-11T13:08:19.120Z,29.14
2022-08-11T13:10:45.293Z,29.10
2022-08-11T13:13:55.653Z,29.28
2022-08-11T13:15:57.814Z,29.26
2022-08-11T13:18:23.965Z,29.26
2022-08-11T13:20:50.127Z,29.40
2022-08-11T13:23:16.264Z,29.14
2022-08-11T13:25:42.411Z,29.13
2022-08-11T13:28:08.549Z,29.25
2022-08-11T13:30:39.085Z,29.33
2022-08-11T13:33:06.904Z,29.47
2022-08-11T13:35:33.074Z,29.41
2022-08-11T13:38:17.905Z,29.43
2022-08-11T13:40:55.657Z,29.40
2022-08-11T13:43:22.466Z,29.29
2022-08-11T13:45:48.689Z,29.30
2022-08-11T13:48:14.837Z,29.52
2022-08-11T13:50:40.987Z,29.69
2022-08-11T13:53:07.165Z,29.66
2022-08-11T13:55:51.198Z,29.67
2022-08-11T13:58:40.845Z,29.81
2022-08-11T14:01:16.775Z,29.91
2022-08-11T14:04:30.909Z,29.79
2022-08-11T14:06:37.359Z,29.81
2022-08-11T14:09:03.554Z,29.96
2022-08-11T14:12:21.590Z,30.05
2022-08-11T14:14:16.145Z,30.03
2022-08-11T14:16:42.319Z,30.12
2022-08-11T14:19:08.453Z,30.20
2022-08-11T14:21:34.597Z,30.31
2022-08-11T14:24:01.354Z,30.40
2022-08-11T14:26:27.658Z,30.57
2022-08-11T14:28:53.814Z,30.90
2022-08-11T14:31:19.954Z,31.16
2022-08-11T14:33:59.564Z,31.38
2022-08-11T14:36:27.860Z,31.41
2022-08-11T14:38:53.992Z,31.46
2022-08-11T14:41:20.179Z,31.74
2022-08-11T14:44:12.184Z,31.95
2022-08-11T14:49:03.544Z,32.36
2022-08-11T14:51:29.666Z,32.64
2022-08-11T14:53:58.719Z,32.58
2022-08-11T14:56:25.199Z,32.95
2022-08-11T14:58:51.341Z,32.99
2022-08-11T15:01:17.602Z,33.15
2022-08-11T15:04:06.154Z,33.40
2022-08-11T15:06:29.980Z,33.74
2022-08-11T15:08:56.149Z,34.06
2022-08-11T15:11:22.305Z,34.20
2022-08-11T15:13:48.457Z,34.22
2022-08-11T15:16:15.131Z,34.53
2022-08-11T15:18:41.274Z,34.77
2022-08-11T15:21:07.417Z,34.90
2022-08-11T15:23:33.578Z,34.53
2022-08-11T15:25:59.736Z,35.25
2022-08-11T15:28:25.868Z,35.16
2022-08-11T15:30:55.125Z,35.23
2022-08-11T15:33:21.286Z,35.56
2022-08-11T15:35:47.412Z,35.94
2022-08-11T15:38:13.549Z,36.17
2022-08-11T15:40:39.721Z,36.36
2022-08-11T15:43:12.880Z,36.51
2022-08-11T15:45:39.185Z,36.77
2022-08-11T15:48:07.762Z,36.94
2022-08-11T15:50:36.779Z,36.66
2022-08-11T15:53:03.023Z,36.96
2022-08-11T15:55:29.165Z,37.13
2022-08-11T15:57:55.295Z,36.96
2022-08-11T16:00:24.429Z,37.23
2022-08-11T16:02:50.782Z,37.52
2022-08-11T16:05:45.332Z,36.96
2022-08-11T16:08:03.536Z,36.98
2022-08-11T16:10:29.682Z,37.26
2022-08-11T16:12:59.749Z,36.91
2022-08-11T16:15:25.898Z,37.09
2022-08-11T16:17:52.056Z,37.43
2022-08-11T16:20:18.209Z,37.35
2022-08-11T16:22:55.275Z,37.08
2022-08-11T16:27:05.293Z,37.47
2022-08-11T16:28:14.674Z,37.60
2022-08-11T16:30:40.855Z,37.62
2022-08-11T16:33:48.755Z,38.58
2022-08-11T16:35:53.137Z,38.99
2022-08-11T16:38:19.302Z,39.73
2022-08-11T16:40:45.439Z,39.23
2022-08-11T16:43:11.886Z,38.61
2022-08-11T16:45:38.074Z,38.48
2022-08-11T16:48:36.060Z,38.56
2022-08-11T16:50:50.374Z,37.85
2022-08-11T16:53:16.496Z,37.64
2022-08-11T16:55:52.669Z,37.57
2022-08-11T16:58:19.179Z,37.65
2022-08-11T17:00:45.889Z,37.47
2022-08-11T17:03:12.028Z,37.17
2022-08-11T17:05:53.683Z,37.10
2022-08-11T17:08:20.909Z,37.15
2022-08-11T17:10:54.552Z,37.39
2022-08-11T17:13:22.733Z,37.63
2022-08-11T17:15:50.862Z,37.33
2022-08-11T17:18:17.292Z,37.26
2022-08-11T17:20:44.273Z,36.92
2022-08-11T17:23:12.969Z,37.18
2022-08-11T17:25:59.886Z,36.88
2022-08-11T17:28:26.094Z,36.46
2022-08-11T17:30:52.285Z,36.64
2022-08-11T17:33:18.426Z,36.60
2022-08-11T17:35:44.605Z,36.93
2022-08-11T17:38:10.826Z,36.80
2022-08-11T17:40:36.944Z,36.79
2022-08-11T17:43:03.088Z,37.18
2022-08-11T17:45:29.711Z,37.23
2022-08-11T17:47:55.846Z,37.27
2022-08-11T17:50:21.977Z,36.88
2022-08-11T17:52:48.158Z,36.99
2022-08-11T17:55:14.280Z,36.83
2022-08-11T17:57:44.373Z,36.68
2022-08-11T18:00:13.540Z,36.23
2022-08-11T18:02:39.677Z,35.90
2022-08-11T18:05:08.504Z,35.86
2022-08-11T18:07:39.244Z,35.60
2022-08-11T18:10:05.506Z,35.52
2022-08-11T18:12:31.670Z,35.47
2022-08-11T18:14:58.114Z,35.30
2022-08-11T18:17:24.236Z,35.18
2022-08-11T18:19:50.439Z,35.18
2022-08-11T18:22:16.612Z,34.91
2022-08-11T18:24:42.738Z,34.75
2022-08-11T18:27:08.879Z,34.57
2022-08-11T18:29:42.270Z,34.36
2022-08-11T18:32:08.604Z,34.08
2022-08-11T18:34:34.735Z,33.93
2022-08-11T18:37:00.892Z,33.81
2022-08-11T18:39:27.085Z,33.51
2022-08-11T18:41:53.258Z,33.22
2022-08-11T18:44:19.402Z,32.81
2022-08-11T18:46:45.530Z,32.58
2022-08-11T18:49:15.771Z,32.37
2022-08-11T18:51:42.205Z,32.06
2022-08-11T18:54:08.378Z,31.74
2022-08-11T18:56:34.526Z,31.54
2022-08-11T18:59:00.674Z,31.21
2022-08-11T19:01:26.865Z,31.06
2022-08-11T19:03:53.033Z,30.77
2022-08-11T19:06:39.170Z,30.52
2022-08-11T19:09:05.831Z,30.25
2022-08-11T19:11:31.993Z,30.09
2022-08-11T19:13:58.104Z,29.94
2022-08-11T19:16:24.274Z,29.71
2022-08-11T19:18:50.433Z,29.47
2022-08-11T19:21:16.566Z,29.20
2022-08-11T19:23:42.703Z,29.00
2022-08-11T19:26:08.860Z,28.87
2022-08-11T19:28:34.993Z,28.76
2022-08-11T19:31:01.117Z,28.53
2022-08-11T19:33:57.320Z,28.53
2022-08-11T19:36:13.402Z,28.38
2022-08-11T19:38:39.569Z,28.28
2022-08-11T19:41:05.743Z,28.09
2022-08-11T19:43:31.889Z,28.02
2022-08-11T19:45:58.519Z,27.74
2022-08-11T19:48:32.696Z,27.42
2022-08-11T19:50:58.976Z,27.49
2022-08-11T19:53:25.146Z,27.40
2022-08-11T19:55:51.322Z,27.30
2022-08-11T19:58:17.466Z,27.12
2022-08-11T20:00:43.625Z,26.96
2022-08-11T20:03:09.781Z,26.95
2022-08-11T20:05:35.905Z,26.80
2022-08-11T20:08:02.070Z,26.58
2022-08-11T20:10:28.196Z,26.44
2022-08-11T20:12:54.335Z,26.40
2022-08-11T20:15:20.520Z,26.28
2022-08-11T20:17:46.866Z,26.25
2022-08-11T20:20:13.031Z,26.11
2022-08-11T20:22:39.650Z,26.03
2022-08-11T20:25:05.986Z,25.95
2022-08-11T20:27:32.118Z,25.90
2022-08-11T20:29:58.277Z,25.84
2022-08-11T20:32:24.410Z,25.78
2022-08-11T20:34:50.539Z,25.80
2022-08-11T20:37:19.182Z,25.74
2022-08-11T20:39:45.355Z,25.73
2022-08-11T20:42:11.495Z,25.65
2022-08-11T20:44:37.636Z,25.58
2022-08-11T20:47:03.765Z,25.51
2022-08-11T20:49:41.307Z,25.40
2022-08-11T20:52:14.967Z,25.24
2022-08-11T20:54:44.723Z,25.18
2022-08-11T20:57:12.867Z,25.21
2022-08-11T20:59:49.979Z,25.18
2022-08-11T21:02:22.930Z,25.12
2022-08-11T21:04:54.762Z,25.02
2022-08-11T21:07:28.507Z,24.97
2022-08-11T21:09:58.076Z,24.91
2022-08-11T21:12:25.305Z,24.90
2022-08-11T21:14:55.014Z,24.81
2022-08-11T21:17:26.872Z,24.76
2022-08-11T21:19:59.752Z,24.65
2022-08-11T21:22:33.249Z,24.59
2022-08-11T21:24:59.386Z,24.61
2022-08-11T21:27:25.513Z,24.57
2022-08-11T21:29:51.672Z,24.50
2022-08-11T21:32:17.785Z,24.37
2022-08-11T21:34:43.930Z,24.24
2022-08-11T21:37:10.074Z,24.32
2022-08-11T21:39:36.302Z,24.29
2022-08-11T21:42:02.478Z,24.35
2022-08-11T21:44:28.620Z,24.27
2022-08-11T21:46:54.742Z,24.19
2022-08-11T21:49:20.882Z,24.16
2022-08-11T21:51:47.037Z,24.18
2022-08-11T21:54:13.169Z,24.11
2022-08-11T21:56:39.309Z,24.09
2022-08-11T21:59:07.205Z,24.07
2022-08-11T22:01:34.683Z,24.01
2022-08-11T22:04:00.912Z,23.95
2022-08-11T22:06:27.230Z,23.98
2022-08-11T22:08:53.378Z,23.89
2022-08-11T22:11:31.870Z,23.85
2022-08-11T22:14:05.978Z,23.80
2022-08-11T22:16:34.017Z,23.80
2022-08-11T22:19:00.169Z,23.76
2022-08-11T22:22:02.371Z,23.74
2022-08-11T22:24:13.589Z,23.63
2022-08-11T22:26:47.613Z,23.61
2022-08-11T22:29:13.920Z,23.58
2022-08-11T22:31:40.370Z,23.64
2022-08-11T22:34:06.522Z,23.56
2022-08-11T22:36:32.670Z,23.56
2022-08-11T22:38:58.838Z,23.49
2022-08-11T22:41:24.974Z,23.54
2022-08-11T22:43:51.122Z,23.50
2022-08-11T22:46:17.280Z,23.46
2022-08-11T22:48:43.416Z,23.47
2022-08-11T22:51:09.566Z,23.52
2022-08-11T22:53:57.232Z,23.60
2022-08-11T22:56:21.901Z,23.59
2022-08-11T22:58:59.018Z,23.55
2022-08-11T23:01:25.195Z,23.48
2022-08-11T23:03:51.355Z,23.42
2022-08-11T23:06:17.527Z,23.47
2022-08-11T23:08:43.656Z,23.51
2022-08-11T23:11:09.804Z,23.58
2022-08-11T23:13:35.966Z,23.51
2022-08-11T23:16:02.094Z,23.45
2022-08-11T23:18:28.224Z,23.50
2022-08-11T23:20:57.567Z,23.46
2022-08-11T23:23:24.380Z,23.27
2022-08-11T23:25:50.512Z,23.22
2022-08-11T23:28:16.723Z,23.14
2022-08-11T23:30:42.854Z,23.13
2022-08-11T23:33:08.998Z,23.14
2022-08-11T23:35:38.701Z,23.08
2022-08-11T23:38:06.806Z,23.10
2022-08-11T23:40:32.946Z,23.17
2022-08-11T23:42:59.099Z,23.23
2022-08-11T23:45:25.229Z,23.20
2022-08-11T23:47:51.358Z,23.21
2022-08-11T23:50:17.519Z,23.23
2022-08-11T23:52:43.665Z,23.25
2022-08-11T23:55:09.810Z,23.24
2022-08-11T23:57:35.971Z,23.28
